sensor_id;sensor_type;location;lat;lon;timestamp;pressure;altitude;pressure_sealevel;temperature;humidity
6218;BME280;3142;48.206;11.550;2023-08-30T00:01:24;95150.59;;;14.76;91.36
6218;BME280;3142;48.206;11.550;2023-08-30T00:03:51;95159.03;;;14.78;91.43
6218;BME280;3142;48.206;11.550;2023-08-30T00:06:18;95161.13;;;14.76;90.97
6218;BME280;3142;48.206;11.550;2023-08-30T00:08:44;95157.13;;;14.74;90.89
6218;BME280;3142;48.206;11.550;2023-08-30T00:11:10;95147.88;;;14.71;90.89
6218;BME280;3142;48.206;11.550;2023-08-30T00:13:37;95152.59;;;14.69;90.60
6218;BME280;3142;48.206;11.550;2023-08-30T00:16:03;95149.41;;;14.67;90.62
6218;BME280;3142;48.206;11.550;2023-08-30T00:18:31;95149.16;;;14.69;90.68
6218;BME280;3142;48.206;11.550;2023-08-30T00:20:58;95156.25;;;14.68;91.00
6218;BME280;3142;48.206;11.550;2023-08-30T00:23:25;95142.31;;;14.68;90.27
6218;BME280;3142;48.206;11.550;2023-08-30T00:25:51;95147.56;;;14.68;90.21
6218;BME280;3142;48.206;11.550;2023-08-30T00:28:17;95150.41;;;14.66;91.00
6218;BME280;3142;48.206;11.550;2023-08-30T00:30:44;95154.66;;;14.67;90.71
6218;BME280;3142;48.206;11.550;2023-08-30T00:33:10;95145.38;;;14.65;90.82
6218;BME280;3142;48.206;11.550;2023-08-30T00:35:38;95141.66;;;14.61;89.71
6218;BME280;3142;48.206;11.550;2023-08-30T00:38:05;95141.09;;;14.59;90.12
6218;BME280;3142;48.206;11.550;2023-08-30T00:40:37;95141.88;;;14.59;90.97
6218;BME280;3142;48.206;11.550;2023-08-30T00:43:04;95142.91;;;14.58;90.18
6218;BME280;3142;48.206;11.550;2023-08-30T00:45:30;95147.94;;;14.60;90.88
6218;BME280;3142;48.206;11.550;2023-08-30T00:47:57;95142.13;;;14.58;90.90
6218;BME280;3142;48.206;11.550;2023-08-30T00:50:24;95144.75;;;14.58;90.75
6218;BME280;3142;48.206;11.550;2023-08-30T00:52:51;95144.75;;;14.58;89.92
6218;BME280;3142;48.206;11.550;2023-08-30T00:55:18;95145.00;;;14.56;90.86
6218;BME280;3142;48.206;11.550;2023-08-30T00:57:44;95140.28;;;14.58;90.36
6218;BME280;3142;48.206;11.550;2023-08-30T01:00:11;95136.06;;;14.57;90.82
6218;BME280;3142;48.206;11.550;2023-08-30T01:02:38;95145.47;;;14.53;90.65
6218;BME280;3142;48.206;11.550;2023-08-30T01:05:05;95141.22;;;14.52;91.30
6218;BME280;3142;48.206;11.550;2023-08-30T01:07:31;95149.72;;;14.54;90.28
6218;BME280;3142;48.206;11.550;2023-08-30T01:09:59;95137.59;;;14.53;90.39
6218;BME280;3142;48.206;11.550;2023-08-30T01:12:29;95149.72;;;14.54;90.38
6218;BME280;3142;48.206;11.550;2023-08-30T01:15:02;95149.38;;;14.50;90.70
6218;BME280;3142;48.206;11.550;2023-08-30T01:17:33;95148.56;;;14.50;90.87
6218;BME280;3142;48.206;11.550;2023-08-30T01:20:01;95145.94;;;14.50;91.08
6218;BME280;3142;48.206;11.550;2023-08-30T01:22:39;95148.31;;;14.51;90.43
6218;BME280;3142;48.206;11.550;2023-08-30T01:25:17;95141.81;;;14.54;90.60
6218;BME280;3142;48.206;11.550;2023-08-30T01:27:48;95142.59;;;14.55;90.08
6218;BME280;3142;48.206;11.550;2023-08-30T01:30:17;95136.53;;;14.54;89.77
6218;BME280;3142;48.206;11.550;2023-08-30T01:32:45;95143.41;;;14.55;89.74
6218;BME280;3142;48.206;11.550;2023-08-30T01:35:12;95140.78;;;14.55;89.40
6218;BME280;3142;48.206;11.550;2023-08-30T01:37:43;95134.94;;;14.53;89.88
6218;BME280;3142;48.206;11.550;2023-08-30T01:40:11;95141.22;;;14.52;89.89
6218;BME280;3142;48.206;11.550;2023-08-30T01:42:38;95135.16;;;14.51;89.78
6218;BME280;3142;48.206;11.550;2023-08-30T01:45:09;95143.31;;;14.50;89.64
6218;BME280;3142;48.206;11.550;2023-08-30T01:47:39;95141.16;;;14.47;89.70
6218;BME280;3142;48.206;11.550;2023-08-30T01:50:07;95138.16;;;14.43;89.39
6218;BME280;3142;48.206;11.550;2023-08-30T01:52:34;95143.44;;;14.43;90.01
6218;BME280;3142;48.206;11.550;2023-08-30T01:55:02;95145.84;;;14.45;90.05
6218;BME280;3142;48.206;11.550;2023-08-30T01:57:28;95141.50;;;14.39;89.49
6218;BME280;3142;48.206;11.550;2023-08-30T01:59:55;95145.00;;;14.28;89.68
6218;BME280;3142;48.206;11.550;2023-08-30T02:02:22;95141.81;;;14.26;90.22
6218;BME280;3142;48.206;11.550;2023-08-30T02:04:49;95145.00;;;14.28;90.43
6218;BME280;3142;48.206;11.550;2023-08-30T02:07:20;95141.66;;;14.32;89.90
6218;BME280;3142;48.206;11.550;2023-08-30T02:09:50;95141.41;;;14.34;91.23
6218;BME280;3142;48.206;11.550;2023-08-30T02:12:22;95140.69;;;14.38;90.52
6218;BME280;3142;48.206;11.550;2023-08-30T02:14:51;95135.66;;;14.37;90.14
6218;BME280;3142;48.206;11.550;2023-08-30T02:17:19;95146.75;;;14.39;89.78
6218;BME280;3142;48.206;11.550;2023-08-30T02:19:47;95150.44;;;14.38;89.51
6218;BME280;3142;48.206;11.550;2023-08-30T02:22:18;95140.47;;;14.40;90.15
6218;BME280;3142;48.206;11.550;2023-08-30T02:24:45;95141.28;;;14.40;89.98
6218;BME280;3142;48.206;11.550;2023-08-30T02:27:11;95137.63;;;14.41;90.12
6218;BME280;3142;48.206;11.550;2023-08-30T02:29:37;95135.78;;;14.42;89.76
6218;BME280;3142;48.206;11.550;2023-08-30T02:32:04;95134.63;;;14.38;89.25
6218;BME280;3142;48.206;11.550;2023-08-30T02:34:31;95130.75;;;14.40;89.63
6218;BME280;3142;48.206;11.550;2023-08-30T02:36:59;95132.59;;;14.40;89.51
6218;BME280;3142;48.206;11.550;2023-08-30T02:39:25;95134.19;;;14.41;88.91
6218;BME280;3142;48.206;11.550;2023-08-30T02:41:52;95138.06;;;14.38;88.98
6218;BME280;3142;48.206;11.550;2023-08-30T02:44:18;95138.84;;;14.39;89.36
6218;BME280;3142;48.206;11.550;2023-08-30T02:46:45;95138.66;;;14.40;88.92
6218;BME280;3142;48.206;11.550;2023-08-30T02:49:11;95147.00;;;14.37;89.33
6218;BME280;3142;48.206;11.550;2023-08-30T02:51:37;95139.34;;;14.36;89.09
6218;BME280;3142;48.206;11.550;2023-08-30T02:54:05;95139.34;;;14.36;88.70
6218;BME280;3142;48.206;11.550;2023-08-30T02:56:32;95146.44;;;14.35;88.87
6218;BME280;3142;48.206;11.550;2023-08-30T02:58:58;95144.06;;;14.34;89.24
6218;BME280;3142;48.206;11.550;2023-08-30T03:01:25;95149.56;;;14.32;89.98
6218;BME280;3142;48.206;11.550;2023-08-30T03:03:51;95142.69;;;14.31;89.72
6218;BME280;3142;48.206;11.550;2023-08-30T03:06:18;95144.84;;;14.34;89.97
6218;BME280;3142;48.206;11.550;2023-08-30T03:08:44;95145.88;;;14.33;89.42
6218;BME280;3142;48.206;11.550;2023-08-30T03:11:13;95144.53;;;14.31;89.16
6218;BME280;3142;48.206;11.550;2023-08-30T03:13:39;95145.31;;;14.31;89.92
6218;BME280;3142;48.206;11.550;2023-08-30T03:16:12;95142.94;;;14.30;90.27
6218;BME280;3142;48.206;11.550;2023-08-30T03:18:39;95141.97;;;14.36;89.86
6218;BME280;3142;48.206;11.550;2023-08-30T03:21:06;95143.31;;;14.38;89.31
6218;BME280;3142;48.206;11.550;2023-08-30T03:23:33;95140.94;;;14.37;89.24
6218;BME280;3142;48.206;11.550;2023-08-30T03:26:07;95134.63;;;14.38;89.64
6218;BME280;3142;48.206;11.550;2023-08-30T03:28:35;95132.81;;;14.38;88.91
6218;BME280;3142;48.206;11.550;2023-08-30T03:31:02;95133.03;;;14.37;89.32
6218;BME280;3142;48.206;11.550;2023-08-30T03:33:28;95123.22;;;14.32;88.89
6218;BME280;3142;48.206;11.550;2023-08-30T03:35:58;95130.09;;;14.33;88.94
6218;BME280;3142;48.206;11.550;2023-08-30T03:38:24;95134.31;;;14.34;89.41
6218;BME280;3142;48.206;11.550;2023-08-30T03:40:53;95131.13;;;14.32;89.07
6218;BME280;3142;48.206;11.550;2023-08-30T03:43:19;95131.44;;;14.36;89.04
6218;BME280;3142;48.206;11.550;2023-08-30T03:45:48;95129.38;;;14.38;88.82
6218;BME280;3142;48.206;11.550;2023-08-30T03:48:14;95135.66;;;14.37;88.72
6218;BME280;3142;48.206;11.550;2023-08-30T03:50:41;95136.94;;;14.34;89.29
6218;BME280;3142;48.206;11.550;2023-08-30T03:53:07;95140.38;;;14.35;89.37
6218;BME280;3142;48.206;11.550;2023-08-30T03:55:33;95137.19;;;14.33;89.31
6218;BME280;3142;48.206;11.550;2023-08-30T03:58:00;95134.56;;;14.33;88.51
6218;BME280;3142;48.206;11.550;2023-08-30T04:00:26;95142.22;;;14.34;89.02
6218;BME280;3142;48.206;11.550;2023-08-30T04:02:54;95134.56;;;14.33;88.80
6218;BME280;3142;48.206;11.550;2023-08-30T04:05:21;95137.50;;;14.36;89.79
6218;BME280;3142;48.206;11.550;2023-08-30T04:07:47;95131.13;;;14.32;89.00
6218;BME280;3142;48.206;11.550;2023-08-30T04:10:14;95137.13;;;14.28;89.21
6218;BME280;3142;48.206;11.550;2023-08-30T04:12:40;95135.84;;;14.30;89.85
6218;BME280;3142;48.206;11.550;2023-08-30T04:15:07;95140.84;;;14.32;90.37
6218;BME280;3142;48.206;11.550;2023-08-30T04:17:34;95133.28;;;14.35;89.50
6218;BME280;3142;48.206;11.550;2023-08-30T04:20:02;95135.66;;;14.37;90.05
6218;BME280;3142;48.206;11.550;2023-08-30T04:22:29;95135.66;;;14.37;89.41
6218;BME280;3142;48.206;11.550;2023-08-30T04:24:55;95138.53;;;14.35;88.95
6218;BME280;3142;48.206;11.550;2023-08-30T04:27:22;95136.72;;;14.36;89.30
6218;BME280;3142;48.206;11.550;2023-08-30T04:29:48;95135.44;;;14.38;89.52
6218;BME280;3142;48.206;11.550;2023-08-30T04:32:15;95141.28;;;14.40;88.78
6218;BME280;3142;48.206;11.550;2023-08-30T04:34:41;95143.00;;;14.35;89.82
6218;BME280;3142;48.206;11.550;2023-08-30T04:37:09;95144.59;;;14.36;90.14
6218;BME280;3142;48.206;11.550;2023-08-30T04:39:35;95139.91;;;14.38;89.36
6218;BME280;3142;48.206;11.550;2023-08-30T04:42:02;95139.81;;;14.33;89.92
6218;BME280;3142;48.206;11.550;2023-08-30T04:44:29;95139.34;;;14.36;90.19
6218;BME280;3142;48.206;11.550;2023-08-30T04:46:57;95139.09;;;14.37;89.05
6218;BME280;3142;48.206;11.550;2023-08-30T04:49:23;95139.59;;;14.34;89.58
6218;BME280;3142;48.206;11.550;2023-08-30T04:51:51;95130.66;;;14.35;89.02
6218;BME280;3142;48.206;11.550;2023-08-30T04:54:18;95140.13;;;14.36;88.87
6218;BME280;3142;48.206;11.550;2023-08-30T04:56:45;95141.19;;;14.35;89.99
6218;BME280;3142;48.206;11.550;2023-08-30T04:59:11;95139.09;;;14.37;90.08
6218;BME280;3142;48.206;11.550;2023-08-30T05:01:38;95143.69;;;14.42;90.25
6218;BME280;3142;48.206;11.550;2023-08-30T05:04:07;95145.84;;;14.45;89.75
6218;BME280;3142;48.206;11.550;2023-08-30T05:06:33;95146.19;;;14.48;89.72
6218;BME280;3142;48.206;11.550;2023-08-30T05:09:00;95142.75;;;14.48;88.92
6218;BME280;3142;48.206;11.550;2023-08-30T05:11:28;95148.56;;;14.50;88.89
6218;BME280;3142;48.206;11.550;2023-08-30T05:13:54;95143.31;;;14.50;89.08
6218;BME280;3142;48.206;11.550;2023-08-30T05:16:21;95139.31;;;14.47;89.29
6218;BME280;3142;48.206;11.550;2023-08-30T05:18:48;95137.78;;;14.51;89.35
6218;BME280;3142;48.206;11.550;2023-08-30T05:21:14;95145.69;;;14.51;88.35
6218;BME280;3142;48.206;11.550;2023-08-30T05:23:41;95137.78;;;14.51;88.46
6218;BME280;3142;48.206;11.550;2023-08-30T05:26:08;95143.31;;;14.50;88.61
6218;BME280;3142;48.206;11.550;2023-08-30T05:28:35;95145.94;;;14.50;88.64
6218;BME280;3142;48.206;11.550;2023-08-30T05:31:02;95148.13;;;14.53;88.61
6218;BME280;3142;48.206;11.550;2023-08-30T05:33:28;95152.34;;;14.54;87.59
6218;BME280;3142;48.206;11.550;2023-08-30T05:35:55;95152.47;;;14.47;88.33
6218;BME280;3142;48.206;11.550;2023-08-30T05:38:21;95152.38;;;14.42;88.31
6218;BME280;3142;48.206;11.550;2023-08-30T05:40:48;95157.19;;;14.45;88.13
6218;BME280;3142;48.206;11.550;2023-08-30T05:43:14;95157.75;;;14.47;88.18
6218;BME280;3142;48.206;11.550;2023-08-30T05:45:42;95154.31;;;14.47;88.03
6218;BME280;3142;48.206;11.550;2023-08-30T05:48:09;95142.19;;;14.46;88.21
6218;BME280;3142;48.206;11.550;2023-08-30T05:50:35;95141.16;;;14.47;89.00
6218;BME280;3142;48.206;11.550;2023-08-30T05:53:03;95148.13;;;14.41;88.18
6218;BME280;3142;48.206;11.550;2023-08-30T05:55:29;95144.47;;;14.42;88.66
6218;BME280;3142;48.206;11.550;2023-08-30T05:57:56;95137.97;;;14.45;89.49
6218;BME280;3142;48.206;11.550;2023-08-30T06:00:22;95145.28;;;14.43;88.50
6218;BME280;3142;48.206;11.550;2023-08-30T06:02:52;95152.72;;;14.46;88.20
6218;BME280;3142;48.206;11.550;2023-08-30T06:05:18;95157.50;;;14.49;88.32
6218;BME280;3142;48.206;11.550;2023-08-30T06:07:45;95154.88;;;14.49;88.63
6218;BME280;3142;48.206;11.550;2023-08-30T06:10:12;95162.06;;;14.54;88.52
6218;BME280;3142;48.206;11.550;2023-08-30T06:12:38;95151.53;;;14.54;88.72
6218;BME280;3142;48.206;11.550;2023-08-30T06:15:06;95155.53;;;14.56;87.88
6218;BME280;3142;48.206;11.550;2023-08-30T06:17:32;95155.28;;;14.58;87.97
6218;BME280;3142;48.206;11.550;2023-08-30T06:20:00;95162.06;;;14.54;88.13
6218;BME280;3142;48.206;11.550;2023-08-30T06:22:28;95172.59;;;14.54;88.36
6218;BME280;3142;48.206;11.550;2023-08-30T06:24:54;95171.56;;;14.55;88.86
6218;BME280;3142;48.206;11.550;2023-08-30T06:27:22;95170.03;;;14.59;88.45
6218;BME280;3142;48.206;11.550;2023-08-30T06:29:49;95170.84;;;14.59;87.88
6218;BME280;3142;48.206;11.550;2023-08-30T06:32:15;95156.09;;;14.58;88.75
6218;BME280;3142;48.206;11.550;2023-08-30T06:34:42;95161.66;;;14.62;87.62
6218;BME280;3142;48.206;11.550;2023-08-30T06:37:10;95157.19;;;14.62;87.85
6218;BME280;3142;48.206;11.550;2023-08-30T06:39:36;95158.25;;;14.61;88.36
6218;BME280;3142;48.206;11.550;2023-08-30T06:42:03;95162.31;;;14.69;87.72
6218;BME280;3142;48.206;11.550;2023-08-30T06:44:30;95163.19;;;14.74;88.04
6218;BME280;3142;48.206;11.550;2023-08-30T06:46:56;95154.66;;;14.67;88.45
6218;BME280;3142;48.206;11.550;2023-08-30T06:49:23;95160.56;;;14.74;88.63
6218;BME280;3142;48.206;11.550;2023-08-30T06:51:49;95159.03;;;14.78;87.59
6218;BME280;3142;48.206;11.550;2023-08-30T06:54:17;95167.72;;;14.79;88.78
6218;BME280;3142;48.206;11.550;2023-08-30T06:56:56;95157.78;;;14.81;88.20
6218;BME280;3142;48.206;11.550;2023-08-30T06:59:23;95161.78;;;14.84;87.81
6218;BME280;3142;48.206;11.550;2023-08-30T07:01:50;95169.44;;;14.85;87.40
6218;BME280;3142;48.206;11.550;2023-08-30T07:04:16;95169.97;;;14.87;87.01
6218;BME280;3142;48.206;11.550;2023-08-30T07:06:43;95169.97;;;14.87;86.92
6218;BME280;3142;48.206;11.550;2023-08-30T07:09:10;95162.09;;;14.87;86.64
6218;BME280;3142;48.206;11.550;2023-08-30T07:11:38;95160.72;;;14.85;87.25
6218;BME280;3142;48.206;11.550;2023-08-30T07:14:04;95154.97;;;14.88;86.95
6218;BME280;3142;48.206;11.550;2023-08-30T07:16:31;95162.47;;;14.79;88.00
6218;BME280;3142;48.206;11.550;2023-08-30T07:18:58;95159.69;;;14.86;87.84
6218;BME280;3142;48.206;11.550;2023-08-30T07:21:25;95156.09;;;14.92;87.30
6218;BME280;3142;48.206;11.550;2023-08-30T07:23:51;95157.38;;;14.89;87.05
6218;BME280;3142;48.206;11.550;2023-08-30T07:26:18;95156.34;;;14.90;86.90
6218;BME280;3142;48.206;11.550;2023-08-30T07:28:46;95166.16;;;14.95;86.85
6218;BME280;3142;48.206;11.550;2023-08-30T07:31:12;95157.28;;;15.01;87.05
6218;BME280;3142;48.206;11.550;2023-08-30T07:33:41;95159.19;;;15.05;86.74
6218;BME280;3142;48.206;11.550;2023-08-30T07:36:08;95157.94;;;15.08;85.72
6218;BME280;3142;48.206;11.550;2023-08-30T07:38:34;95162.63;;;15.06;85.38
6218;BME280;3142;48.206;11.550;2023-08-30T07:41:01;95162.97;;;15.09;85.28
6218;BME280;3142;48.206;11.550;2023-08-30T07:43:28;95158.25;;;15.11;85.27
6218;BME280;3142;48.206;11.550;2023-08-30T07:45:55;95162.16;;;15.09;85.25
6218;BME280;3142;48.206;11.550;2023-08-30T07:48:22;95170.19;;;15.19;85.48
6218;BME280;3142;48.206;11.550;2023-08-30T07:50:49;95172.69;;;15.26;84.96
6218;BME280;3142;48.206;11.550;2023-08-30T07:53:15;95169.00;;;15.27;84.89
6218;BME280;3142;48.206;11.550;2023-08-30T07:55:41;95183.78;;;15.28;84.55
6218;BME280;3142;48.206;11.550;2023-08-30T07:58:08;95174.84;;;15.29;84.86
6218;BME280;3142;48.206;11.550;2023-08-30T08:00:35;95186.97;;;15.30;84.77
6218;BME280;3142;48.206;11.550;2023-08-30T08:03:03;95182.44;;;15.25;84.90
6218;BME280;3142;48.206;11.550;2023-08-30T08:05:30;95180.66;;;15.31;84.55
6218;BME280;3142;48.206;11.550;2023-08-30T08:07:59;95180.81;;;15.41;84.38
6218;BME280;3142;48.206;11.550;2023-08-30T08:10:26;95179.97;;;15.57;83.79
6218;BME280;3142;48.206;11.550;2023-08-30T08:12:53;95173.88;;;15.74;83.42
6218;BME280;3142;48.206;11.550;2023-08-30T08:15:19;95174.56;;;15.86;83.13
6218;BME280;3142;48.206;11.550;2023-08-30T08:17:46;95181.50;;;15.92;82.96
6218;BME280;3142;48.206;11.550;2023-08-30T08:20:14;95177.88;;;15.98;82.72
6218;BME280;3142;48.206;11.550;2023-08-30T08:22:40;95179.09;;;16.12;81.88
6218;BME280;3142;48.206;11.550;2023-08-30T08:25:07;95185.75;;;16.69;80.50
6218;BME280;3142;48.206;11.550;2023-08-30T08:27:35;95176.44;;;17.25;78.50
6218;BME280;3142;48.206;11.550;2023-08-30T08:30:02;95180.47;;;17.80;76.35
6218;BME280;3142;48.206;11.550;2023-08-30T08:32:29;95178.47;;;17.97;75.52
6218;BME280;3142;48.206;11.550;2023-08-30T08:34:55;95178.34;;;17.77;74.89
6218;BME280;3142;48.206;11.550;2023-08-30T08:37:23;95172.59;;;17.95;74.06
6218;BME280;3142;48.206;11.550;2023-08-30T08:39:50;95169.53;;;18.19;73.39
6218;BME280;3142;48.206;11.550;2023-08-30T08:42:17;95174.91;;;18.59;70.92
6218;BME280;3142;48.206;11.550;2023-08-30T08:44:46;95168.81;;;18.59;70.91
6218;BME280;3142;48.206;11.550;2023-08-30T08:47:12;95169.88;;;18.53;71.52
6218;BME280;3142;48.206;11.550;2023-08-30T08:49:39;95163.31;;;18.71;70.25
6218;BME280;3142;48.206;11.550;2023-08-30T08:52:07;95170.97;;;18.77;69.49
6218;BME280;3142;48.206;11.550;2023-08-30T08:54:35;95167.81;;;18.65;68.70
6218;BME280;3142;48.206;11.550;2023-08-30T08:57:03;95161.72;;;18.64;69.94
6218;BME280;3142;48.206;11.550;2023-08-30T08:59:30;95166.47;;;19.03;69.25
6218;BME280;3142;48.206;11.550;2023-08-30T09:01:57;95168.88;;;19.10;68.83
6218;BME280;3142;48.206;11.550;2023-08-30T09:04:23;95163.53;;;19.30;68.45
6218;BME280;3142;48.206;11.550;2023-08-30T09:06:51;95164.91;;;19.33;67.25
6218;BME280;3142;48.206;11.550;2023-08-30T09:09:18;95160.94;;;19.10;66.85
6218;BME280;3142;48.206;11.550;2023-08-30T09:11:46;95161.72;;;18.95;67.05
6218;BME280;3142;48.206;11.550;2023-08-30T09:14:12;95159.34;;;19.09;66.81
6218;BME280;3142;48.206;11.550;2023-08-30T09:16:39;95160.63;;;19.32;66.34
6218;BME280;3142;48.206;11.550;2023-08-30T09:19:05;95154.28;;;19.22;66.05
6218;BME280;3142;48.206;11.550;2023-08-30T09:21:32;95149.22;;;19.41;65.97
6218;BME280;3142;48.206;11.550;2023-08-30T09:24:00;95147.63;;;20.20;64.74
6218;BME280;3142;48.206;11.550;2023-08-30T09:26:27;95136.47;;;21.59;60.42
6218;BME280;3142;48.206;11.550;2023-08-30T09:28:56;95142.28;;;22.71;57.25
6218;BME280;3142;48.206;11.550;2023-08-30T09:31:22;95144.97;;;23.36;54.39
6218;BME280;3142;48.206;11.550;2023-08-30T09:33:49;95139.63;;;23.22;53.08
6218;BME280;3142;48.206;11.550;2023-08-30T09:36:15;95137.81;;;23.64;50.76
6218;BME280;3142;48.206;11.550;2023-08-30T09:38:48;95140.47;;;24.19;51.19
6218;BME280;3142;48.206;11.550;2023-08-30T09:41:14;95138.28;;;23.06;52.20
6218;BME280;3142;48.206;11.550;2023-08-30T09:43:42;95142.69;;;22.59;53.46
6218;BME280;3142;48.206;11.550;2023-08-30T09:46:11;95136.31;;;21.75;55.30
6218;BME280;3142;48.206;11.550;2023-08-30T09:48:38;95142.09;;;21.00;56.49
6218;BME280;3142;48.206;11.550;2023-08-30T09:51:07;95137.66;;;20.51;57.04
6218;BME280;3142;48.206;11.550;2023-08-30T09:53:40;95141.81;;;20.13;57.79
6218;BME280;3142;48.206;11.550;2023-08-30T09:56:11;95139.22;;;20.03;58.37
6218;BME280;3142;48.206;11.550;2023-08-30T09:58:39;95142.25;;;19.76;59.50
6218;BME280;3142;48.206;11.550;2023-08-30T10:01:07;95130.88;;;19.50;61.01
6218;BME280;3142;48.206;11.550;2023-08-30T10:03:35;95136.75;;;19.27;61.88
6218;BME280;3142;48.206;11.550;2023-08-30T10:06:02;95129.38;;;19.03;62.77
6218;BME280;3142;48.206;11.550;2023-08-30T10:08:32;95123.00;;;18.89;63.55
6218;BME280;3142;48.206;11.550;2023-08-30T10:11:02;95121.94;;;18.75;63.74
6218;BME280;3142;48.206;11.550;2023-08-30T10:13:29;95117.69;;;18.63;65.20
6218;BME280;3142;48.206;11.550;2023-08-30T10:16:00;95110.25;;;18.60;64.72
6218;BME280;3142;48.206;11.550;2023-08-30T10:18:29;95119.53;;;18.58;65.92
6218;BME280;3142;48.206;11.550;2023-08-30T10:20:59;95123.81;;;18.89;65.28
6218;BME280;3142;48.206;11.550;2023-08-30T10:23:26;95121.38;;;19.29;63.74
6218;BME280;3142;48.206;11.550;2023-08-30T10:25:54;95109.19;;;19.22;63.54
6218;BME280;3142;48.206;11.550;2023-08-30T10:28:23;95106.25;;;19.34;63.53
6218;BME280;3142;48.206;11.550;2023-08-30T10:30:50;95101.28;;;20.47;61.45
6218;BME280;3142;48.206;11.550;2023-08-30T10:33:17;95104.63;;;20.91;61.27
6218;BME280;3142;48.206;11.550;2023-08-30T10:35:47;95108.31;;;20.95;59.80
6218;BME280;3142;48.206;11.550;2023-08-30T10:38:24;95102.75;;;20.97;57.82
6218;BME280;3142;48.206;11.550;2023-08-30T10:40:51;95112.25;;;21.03;56.71
6218;BME280;3142;48.206;11.550;2023-08-30T10:43:28;95107.44;;;21.39;56.00
6218;BME280;3142;48.206;11.550;2023-08-30T10:46:00;95107.09;;;21.88;54.73
6218;BME280;3142;48.206;11.550;2023-08-30T10:48:34;95105.44;;;22.16;53.81
6218;BME280;3142;48.206;11.550;2023-08-30T10:51:01;95099.13;;;22.31;53.32
6218;BME280;3142;48.206;11.550;2023-08-30T10:53:31;95102.09;;;22.49;52.27
6218;BME280;3142;48.206;11.550;2023-08-30T10:56:07;95102.25;;;23.36;49.15
6218;BME280;3142;48.206;11.550;2023-08-30T10:58:43;95090.03;;;23.76;47.33
6218;BME280;3142;48.206;11.550;2023-08-30T11:01:10;95093.31;;;23.59;47.32
6218;BME280;3142;48.206;11.550;2023-08-30T11:03:39;95094.63;;;23.43;47.64
6218;BME280;3142;48.206;11.550;2023-08-30T11:06:06;95097.88;;;23.59;47.05
6218;BME280;3142;48.206;11.550;2023-08-30T11:08:34;95095.09;;;23.78;46.19
6218;BME280;3142;48.206;11.550;2023-08-30T11:11:03;95091.47;;;23.55;45.57
6218;BME280;3142;48.206;11.550;2023-08-30T11:13:31;95087.31;;;22.89;46.49
6218;BME280;3142;48.206;11.550;2023-08-30T11:16:00;95095.03;;;22.71;47.90
6218;BME280;3142;48.206;11.550;2023-08-30T11:18:27;95087.16;;;22.99;47.56
6218;BME280;3142;48.206;11.550;2023-08-30T11:20:58;95083.69;;;22.47;48.63
6218;BME280;3142;48.206;11.550;2023-08-30T11:23:26;95084.25;;;22.06;49.66
6218;BME280;3142;48.206;11.550;2023-08-30T11:25:54;95080.50;;;21.65;50.29
6218;BME280;3142;48.206;11.550;2023-08-30T11:28:24;95088.09;;;21.23;51.77
6218;BME280;3142;48.206;11.550;2023-08-30T11:30:53;95086.03;;;20.91;53.13
6218;BME280;3142;48.206;11.550;2023-08-30T11:33:20;95085.72;;;20.64;54.32
6218;BME280;3142;48.206;11.550;2023-08-30T11:35:49;95084.53;;;20.41;54.49
6218;BME280;3142;48.206;11.550;2023-08-30T11:38:17;95081.72;;;20.22;55.22
6218;BME280;3142;48.206;11.550;2023-08-30T11:40:44;95094.31;;;20.06;55.44
6218;BME280;3142;48.206;11.550;2023-08-30T11:43:12;95094.34;;;20.01;55.76
6218;BME280;3142;48.206;11.550;2023-08-30T11:45:38;95089.84;;;20.02;56.17
6218;BME280;3142;48.206;11.550;2023-08-30T11:48:05;95085.94;;;20.73;54.14
6218;BME280;3142;48.206;11.550;2023-08-30T11:50:33;95071.09;;;21.72;51.09
6218;BME280;3142;48.206;11.550;2023-08-30T11:53:00;95070.69;;;22.78;48.83
6218;BME280;3142;48.206;11.550;2023-08-30T11:55:26;95074.63;;;23.13;48.42
6218;BME280;3142;48.206;11.550;2023-08-30T11:57:53;95072.81;;;22.95;48.76
6218;BME280;3142;48.206;11.550;2023-08-30T12:00:22;95075.00;;;22.74;48.28
6218;BME280;3142;48.206;11.550;2023-08-30T12:02:49;95068.53;;;22.61;49.29
6218;BME280;3142;48.206;11.550;2023-08-30T12:05:15;95058.19;;;22.73;50.28
6218;BME280;3142;48.206;11.550;2023-08-30T12:07:42;95074.50;;;22.91;48.91
6218;BME280;3142;48.206;11.550;2023-08-30T12:10:10;95062.44;;;22.42;49.64
6218;BME280;3142;48.206;11.550;2023-08-30T12:12:37;95068.78;;;22.27;49.92
6218;BME280;3142;48.206;11.550;2023-08-30T12:15:07;95062.78;;;22.54;49.50
6218;BME280;3142;48.206;11.550;2023-08-30T12:17:35;95062.03;;;22.86;48.62
6218;BME280;3142;48.206;11.550;2023-08-30T12:20:03;95053.09;;;23.10;48.22
6218;BME280;3142;48.206;11.550;2023-08-30T12:22:36;95047.47;;;23.25;46.96
6218;BME280;3142;48.206;11.550;2023-08-30T12:25:04;95049.34;;;23.38;46.66
6218;BME280;3142;48.206;11.550;2023-08-30T12:27:30;95051.09;;;23.29;46.86
6218;BME280;3142;48.206;11.550;2023-08-30T12:29:57;95052.41;;;23.04;47.50
6218;BME280;3142;48.206;11.550;2023-08-30T12:32:23;95047.28;;;22.56;48.07
6218;BME280;3142;48.206;11.550;2023-08-30T12:34:51;95051.38;;;22.35;48.40
6218;BME280;3142;48.206;11.550;2023-08-30T12:37:17;95056.47;;;22.12;48.42
6218;BME280;3142;48.206;11.550;2023-08-30T12:39:44;95044.28;;;22.06;48.73
6218;BME280;3142;48.206;11.550;2023-08-30T12:42:10;95053.91;;;22.07;48.76
6218;BME280;3142;48.206;11.550;2023-08-30T12:44:36;95049.09;;;22.04;48.37
6218;BME280;3142;48.206;11.550;2023-08-30T12:47:03;95042.38;;;21.88;49.00
6218;BME280;3142;48.206;11.550;2023-08-30T12:49:30;95046.13;;;21.87;49.59
6218;BME280;3142;48.206;11.550;2023-08-30T12:51:58;95046.97;;;21.64;50.78
6218;BME280;3142;48.206;11.550;2023-08-30T12:54:24;95040.81;;;21.44;52.15
6218;BME280;3142;48.206;11.550;2023-08-30T12:56:50;95044.88;;;21.37;52.86
6218;BME280;3142;48.206;11.550;2023-08-30T12:59:17;95040.56;;;21.17;53.21
6218;BME280;3142;48.206;11.550;2023-08-30T13:01:43;95042.88;;;20.99;53.70
6218;BME280;3142;48.206;11.550;2023-08-30T13:04:10;95043.56;;;20.81;53.77
6218;BME280;3142;48.206;11.550;2023-08-30T13:06:36;95047.41;;;20.70;54.02
6218;BME280;3142;48.206;11.550;2023-08-30T13:09:04;95042.19;;;20.55;55.79
6218;BME280;3142;48.206;11.550;2023-08-30T13:11:31;95054.31;;;20.32;57.21